createdAt,value
2023-04-24T00:00:10.372Z,21.18
2023-04-24T00:02:39.792Z,21.15
2023-04-24T00:05:07.800Z,21.14
2023-04-24T00:07:35.686Z,21.16
2023-04-24T00:10:03.482Z,21.14
2023-04-24T00:12:31.385Z,21.16
2023-04-24T00:14:59.233Z,21.16
2023-04-24T00:17:27.112Z,21.17
2023-04-24T00:19:59.546Z,21.16
2023-04-24T00:22:27.467Z,21.14
2023-04-24T00:24:55.272Z,21.14
2023-04-24T00:27:23.077Z,21.12
2023-04-24T00:29:50.917Z,21.13
2023-04-24T00:32:19.164Z,21.13
2023-04-24T00:34:47.158Z,21.13
2023-04-24T00:37:14.928Z,21.13
2023-04-24T00:39:43.067Z,21.13
2023-04-24T00:42:11.088Z,21.13
2023-04-24T00:44:39.064Z,21.13
2023-04-24T00:47:07.219Z,21.12
2023-04-24T00:49:34.993Z,21.12
2023-04-24T00:52:03.283Z,21.11
2023-04-24T00:54:31.030Z,21.09
2023-04-24T00:56:58.890Z,21.09
2023-04-24T00:59:26.856Z,21.07
2023-04-24T01:01:54.714Z,21.08
2023-04-24T01:04:22.930Z,21.12
2023-04-24T01:06:53.259Z,21.11
2023-04-24T01:09:21.282Z,21.06
2023-04-24T01:11:49.063Z,21.04
2023-04-24T01:14:16.916Z,21.04
2023-04-24T01:16:44.748Z,21.05
2023-04-24T01:19:12.576Z,21.05
2023-04-24T01:21:40.716Z,21.04
2023-04-24T01:24:08.857Z,21.03
2023-04-24T01:26:36.742Z,21.04
2023-04-24T01:29:04.529Z,21.01
2023-04-24T01:31:32.462Z,21.01
2023-04-24T01:34:00.345Z,21.02
2023-04-24T01:36:28.328Z,21.01
2023-04-24T01:38:56.362Z,21.01
2023-04-24T01:41:24.202Z,21.00
2023-04-24T01:43:52.114Z,21.01
2023-04-24T01:46:20.119Z,21.01
2023-04-24T01:48:47.964Z,20.99
2023-04-24T01:51:15.965Z,21.00
2023-04-24T01:53:43.758Z,21.01
2023-04-24T01:56:11.664Z,20.99
2023-04-24T01:58:39.477Z,20.99
2023-04-24T02:01:07.407Z,20.98
2023-04-24T02:03:36.028Z,21.01
2023-04-24T02:06:04.166Z,21.00
2023-04-24T02:08:32.032Z,20.99
2023-04-24T02:10:59.833Z,20.97
2023-04-24T02:13:27.655Z,20.96
2023-04-24T02:15:55.708Z,20.97
2023-04-24T02:18:23.834Z,20.96
2023-04-24T02:20:51.659Z,20.95
2023-04-24T02:23:19.532Z,20.96
2023-04-24T02:25:48.189Z,20.95
2023-04-24T02:28:16.183Z,20.94
2023-04-24T02:30:43.970Z,20.94
2023-04-24T02:33:12.068Z,20.95
2023-04-24T02:35:39.907Z,20.93
2023-04-24T02:38:07.878Z,20.95
2023-04-24T02:40:36.207Z,20.93
2023-04-24T02:43:04.308Z,20.93
2023-04-24T02:45:32.096Z,20.92
2023-04-24T02:48:00.109Z,20.91
2023-04-24T02:50:27.953Z,20.90
2023-04-24T02:52:55.972Z,20.92
2023-04-24T02:55:23.807Z,20.91
2023-04-24T02:57:51.708Z,20.91
2023-04-24T03:00:19.513Z,20.90
2023-04-24T03:02:47.392Z,20.89
2023-04-24T03:05:15.444Z,20.89
2023-04-24T03:07:43.242Z,20.89
2023-04-24T03:10:11.293Z,20.88
2023-04-24T03:12:39.073Z,20.86
2023-04-24T03:15:06.853Z,20.87
2023-04-24T03:17:34.693Z,20.86
2023-04-24T03:20:02.532Z,20.84
2023-04-24T03:22:30.378Z,20.84
2023-04-24T03:24:58.321Z,20.84
2023-04-24T03:27:26.167Z,20.82
2023-04-24T03:29:56.354Z,20.80
2023-04-24T03:32:24.421Z,20.84
2023-04-24T03:34:52.373Z,20.84
2023-04-24T03:37:20.176Z,20.84
2023-04-24T03:39:48.038Z,20.83
2023-04-24T03:42:16.083Z,20.81
2023-04-24T03:44:43.882Z,20.81
2023-04-24T03:47:11.665Z,20.79
2023-04-24T03:49:39.496Z,20.77
2023-04-24T03:52:07.300Z,20.76
2023-04-24T03:54:35.202Z,20.75
2023-04-24T03:57:04.488Z,20.75
2023-04-24T03:59:32.408Z,20.75
2023-04-24T04:02:00.205Z,20.71
2023-04-24T04:04:28.116Z,20.71
2023-04-24T04:06:56.131Z,20.72
2023-04-24T04:09:23.933Z,20.71
2023-04-24T04:11:51.829Z,20.71
2023-04-24T04:14:19.652Z,20.70
2023-04-24T04:16:47.482Z,20.70
2023-04-24T04:19:15.518Z,20.67
2023-04-24T04:21:43.301Z,20.69
2023-04-24T04:24:11.148Z,20.75
2023-04-24T04:26:39.016Z,20.78
2023-04-24T04:29:07.790Z,20.81
2023-04-24T04:31:35.598Z,20.81
2023-04-24T04:34:03.775Z,20.80
2023-04-24T04:36:32.306Z,20.74
2023-04-24T04:39:01.196Z,20.74
2023-04-24T04:41:29.047Z,20.68
2023-04-24T04:43:59.601Z,20.65
2023-04-24T04:46:28.113Z,20.66
2023-04-24T04:48:55.901Z,20.66
2023-04-24T04:51:23.690Z,20.67
2023-04-24T04:53:51.464Z,20.70
2023-04-24T04:56:19.359Z,20.66
2023-04-24T04:58:47.151Z,20.69
2023-04-24T05:01:15.024Z,20.74
2023-04-24T05:03:42.925Z,20.74
2023-04-24T05:06:10.971Z,20.75
2023-04-24T05:08:38.772Z,20.79
2023-04-24T05:11:07.319Z,20.79
2023-04-24T05:13:40.422Z,20.81
2023-04-24T05:16:08.703Z,20.81
2023-04-24T05:18:36.466Z,20.81
2023-04-24T05:21:04.275Z,20.82
2023-04-24T05:23:32.343Z,20.82
2023-04-24T05:26:00.156Z,20.88
2023-04-24T05:28:29.526Z,20.88
2023-04-24T05:30:57.518Z,20.93
2023-04-24T05:33:25.343Z,20.93
2023-04-24T05:35:53.181Z,20.97
2023-04-24T05:38:20.992Z,20.98
2023-04-24T05:40:48.847Z,21.01
2023-04-24T05:43:16.642Z,21.02
2023-04-24T05:45:45.974Z,21.04
2023-04-24T05:48:13.787Z,21.04
2023-04-24T05:50:41.792Z,21.03
2023-04-24T05:53:12.230Z,21.06
2023-04-24T05:55:39.990Z,21.08
2023-04-24T05:58:08.050Z,21.09
2023-04-24T06:00:35.885Z,21.12
2023-04-24T06:03:04.937Z,21.19
2023-04-24T06:05:33.146Z,21.28
2023-04-24T06:08:01.032Z,21.33
2023-04-24T06:10:28.881Z,21.37
2023-04-24T06:13:01.526Z,21.40
2023-04-24T06:15:29.396Z,21.45
2023-04-24T06:17:57.397Z,21.45
2023-04-24T06:20:25.625Z,21.45
2023-04-24T06:22:53.438Z,21.43
2023-04-24T06:25:21.602Z,21.39
2023-04-24T06:27:49.351Z,21.37
2023-04-24T06:30:17.103Z,21.35
2023-04-24T06:32:44.892Z,21.33
2023-04-24T06:35:13.441Z,21.33
2023-04-24T06:37:41.310Z,21.30
2023-04-24T06:40:09.254Z,21.29
2023-04-24T06:42:37.223Z,21.29
2023-04-24T06:45:05.061Z,21.28
2023-04-24T06:47:32.875Z,21.26
2023-04-24T06:50:00.841Z,21.24
2023-04-24T06:52:29.057Z,21.23
2023-04-24T06:54:56.981Z,21.25
2023-04-24T06:57:24.879Z,21.27
2023-04-24T06:59:52.819Z,21.28
2023-04-24T07:02:21.134Z,21.28
2023-04-24T07:04:49.035Z,21.25
2023-04-24T07:07:17.633Z,21.28
2023-04-24T07:09:46.526Z,21.29
2023-04-24T07:12:14.533Z,21.29
2023-04-24T07:14:42.305Z,21.30
2023-04-24T07:17:10.136Z,21.28
2023-04-24T07:19:38.034Z,21.27
2023-04-24T07:22:05.832Z,21.27
2023-04-24T07:24:33.988Z,21.28
2023-04-24T07:27:02.200Z,21.28
2023-04-24T07:29:29.957Z,21.29
2023-04-24T07:31:57.963Z,21.35
2023-04-24T07:34:25.806Z,21.43
2023-04-24T07:36:53.646Z,21.49
2023-04-24T07:39:21.717Z,21.54
2023-04-24T07:41:49.549Z,21.57
2023-04-24T07:44:17.525Z,21.58
2023-04-24T07:46:45.449Z,21.58
2023-04-24T07:49:14.467Z,21.59
2023-04-24T07:51:43.167Z,21.59
2023-04-24T07:54:11.000Z,21.60
2023-04-24T07:56:40.160Z,21.62
2023-04-24T07:59:08.215Z,21.65
2023-04-24T08:01:36.048Z,21.68
2023-04-24T08:04:04.135Z,21.69
2023-04-24T08:06:33.079Z,21.71
2023-04-24T08:09:01.069Z,21.73
2023-04-24T08:11:28.864Z,21.74
2023-04-24T08:13:56.960Z,21.76
2023-04-24T08:16:25.182Z,21.78
2023-04-24T08:18:53.214Z,21.78
2023-04-24T08:21:21.779Z,21.77
2023-04-24T08:23:51.004Z,21.79
2023-04-24T08:26:18.798Z,21.80
2023-04-24T08:28:46.576Z,21.80
2023-04-24T08:31:14.492Z,21.82
2023-04-24T08:33:42.285Z,21.74
2023-04-24T08:36:10.064Z,21.78
2023-04-24T08:38:37.899Z,21.80
2023-04-24T08:41:06.168Z,21.79
2023-04-24T08:43:33.980Z,21.87
2023-04-24T08:46:02.220Z,21.92
2023-04-24T08:48:32.257Z,21.90
2023-04-24T08:51:00.354Z,21.88
2023-04-24T08:53:28.262Z,21.87
2023-04-24T08:55:56.524Z,21.88
2023-04-24T08:58:24.449Z,21.89
2023-04-24T09:00:52.264Z,21.83
2023-04-24T09:03:20.280Z,21.86
2023-04-24T09:05:48.199Z,21.88
2023-04-24T09:08:16.091Z,21.85
2023-04-24T09:10:43.926Z,21.92
2023-04-24T09:13:12.218Z,21.94
2023-04-24T09:15:40.098Z,21.93
2023-04-24T09:18:07.919Z,21.87
2023-04-24T09:20:37.280Z,21.91
2023-04-24T09:23:05.348Z,21.91
2023-04-24T09:25:33.165Z,21.90
2023-04-24T09:28:01.191Z,21.91
2023-04-24T09:30:29.269Z,21.90
2023-04-24T09:32:57.294Z,21.87
2023-04-24T09:35:25.138Z,21.85
2023-04-24T09:37:53.034Z,21.82
2023-04-24T09:40:20.887Z,21.79
2023-04-24T09:42:48.844Z,21.76
2023-04-24T09:45:19.792Z,21.76
2023-04-24T09:47:52.866Z,21.75
2023-04-24T09:50:23.618Z,21.74
2023-04-24T09:52:56.915Z,21.74
2023-04-24T09:55:30.360Z,21.76
2023-04-24T09:57:58.634Z,21.78
2023-04-24T10:00:28.810Z,21.81
2023-04-24T10:02:59.425Z,21.82
2023-04-24T10:05:35.544Z,21.83
2023-04-24T10:08:06.950Z,21.85
2023-04-24T10:10:35.019Z,21.89
2023-04-24T10:13:03.255Z,21.89
2023-04-24T10:15:50.602Z,21.89
2023-04-24T10:18:30.966Z,21.89
2023-04-24T10:21:01.482Z,21.89
2023-04-24T10:23:32.559Z,21.89
2023-04-24T10:26:05.745Z,21.89
2023-04-24T10:28:34.047Z,21.92
2023-04-24T10:31:05.398Z,21.89
2023-04-24T10:33:37.722Z,21.89
2023-04-24T10:36:07.954Z,21.91
2023-04-24T10:38:36.048Z,21.94
2023-04-24T10:41:05.874Z,21.92
2023-04-24T10:43:34.080Z,21.90
2023-04-24T10:46:05.699Z,21.91
2023-04-24T10:48:35.986Z,21.91
2023-04-24T10:51:09.666Z,21.89
2023-04-24T10:53:43.811Z,21.85
2023-04-24T10:56:12.053Z,21.87
2023-04-24T10:58:48.327Z,21.89
2023-04-24T11:01:31.904Z,21.88
2023-04-24T11:04:06.524Z,21.89
2023-04-24T11:06:38.926Z,21.88
2023-04-24T11:09:07.899Z,21.90
2023-04-24T11:11:40.593Z,21.89
2023-04-24T11:14:12.450Z,21.89
2023-04-24T11:16:43.569Z,21.86
2023-04-24T11:19:14.308Z,21.85
2023-04-24T11:21:42.978Z,21.85
2023-04-24T11:24:10.815Z,21.85
2023-04-24T11:26:39.071Z,21.79
2023-04-24T11:29:07.841Z,21.82
2023-04-24T11:31:35.614Z,21.85
2023-04-24T11:34:03.424Z,21.86
2023-04-24T11:36:31.305Z,21.84
2023-04-24T11:38:59.108Z,21.85
2023-04-24T11:41:26.929Z,21.85
2023-04-24T11:43:55.591Z,21.87
2023-04-24T11:46:24.539Z,21.92
2023-04-24T11:48:52.342Z,21.93
2023-04-24T11:51:20.182Z,21.92
2023-04-24T11:53:49.675Z,21.91
2023-04-24T11:56:22.641Z,21.89
2023-04-24T11:58:50.437Z,21.86
2023-04-24T12:01:18.257Z,21.88
2023-04-24T12:03:47.926Z,21.89
2023-04-24T12:06:16.060Z,21.92
2023-04-24T12:08:43.860Z,21.92
2023-04-24T12:11:11.824Z,21.96
2023-04-24T12:13:39.728Z,21.96
2023-04-24T12:16:07.524Z,21.95
2023-04-24T12:18:35.487Z,21.93
2023-04-24T12:21:03.635Z,21.93
2023-04-24T12:23:31.461Z,21.87
2023-04-24T12:26:01.917Z,21.85
2023-04-24T12:28:29.696Z,21.82
2023-04-24T12:30:57.881Z,21.77
2023-04-24T12:33:25.678Z,21.76
2023-04-24T12:35:54.322Z,21.80
2023-04-24T12:40:49.870Z,21.81
2023-04-24T12:43:17.676Z,21.80
2023-04-24T12:45:46.074Z,21.80
2023-04-24T12:48:15.108Z,21.81
2023-04-24T12:50:45.471Z,21.82
2023-04-24T12:53:14.126Z,21.82
2023-04-24T12:55:41.920Z,21.81
2023-04-24T12:58:09.834Z,21.81
2023-04-24T13:00:37.821Z,21.79
2023-04-24T13:03:05.808Z,21.78
2023-04-24T13:05:33.672Z,21.76
2023-04-24T13:08:01.453Z,21.76
2023-04-24T13:10:29.234Z,21.76
2023-04-24T13:12:57.028Z,21.78
2023-04-24T13:15:24.834Z,21.77
2023-04-24T13:17:52.711Z,21.77
2023-04-24T13:20:20.621Z,21.81
2023-04-24T13:22:48.453Z,21.82
2023-04-24T13:25:18.146Z,21.85
2023-04-24T13:27:46.394Z,21.85
2023-04-24T13:30:14.361Z,21.87
2023-04-24T13:32:42.217Z,21.91
2023-04-24T13:35:10.013Z,21.90
2023-04-24T13:37:37.830Z,21.91
2023-04-24T13:40:07.192Z,21.91
2023-04-24T13:42:35.059Z,21.92
2023-04-24T13:45:13.890Z,21.91
2023-04-24T13:47:52.200Z,21.63
2023-04-24T13:50:20.350Z,21.70
2023-04-24T13:52:48.130Z,21.83
2023-04-24T13:55:16.073Z,21.97
2023-04-24T13:57:43.817Z,22.10
2023-04-24T14:00:12.061Z,22.15
2023-04-24T14:02:40.076Z,22.22
2023-04-24T14:05:08.044Z,22.27
2023-04-24T14:07:35.913Z,22.31
2023-04-24T14:10:03.754Z,22.37
2023-04-24T14:12:31.662Z,22.36
2023-04-24T14:14:59.465Z,22.34
2023-04-24T14:17:27.269Z,22.35
2023-04-24T14:19:57.358Z,22.36
2023-04-24T14:22:25.192Z,22.33
2023-04-24T14:24:53.011Z,22.30
2023-04-24T14:27:21.105Z,22.28
2023-04-24T14:29:48.934Z,22.26
2023-04-24T14:32:17.013Z,22.21
2023-04-24T14:34:44.828Z,22.20
2023-04-24T14:37:12.668Z,22.17
2023-04-24T14:39:40.433Z,22.13
2023-04-24T14:42:08.170Z,22.08
2023-04-24T14:44:36.046Z,22.01
2023-04-24T14:47:03.945Z,22.01
2023-04-24T14:49:31.808Z,22.00
2023-04-24T14:51:59.625Z,21.95
2023-04-24T14:54:27.421Z,21.94
2023-04-24T14:56:55.215Z,21.93
2023-04-24T14:59:22.997Z,21.93
2023-04-24T15:01:59.017Z,21.90
2023-04-24T15:04:33.280Z,21.87
2023-04-24T15:09:29.272Z,21.78
2023-04-24T15:11:57.621Z,21.76
2023-04-24T15:14:25.394Z,21.79
2023-04-24T15:16:53.386Z,21.78
2023-04-24T15:19:21.219Z,21.81
2023-04-24T15:21:48.983Z,21.79
2023-04-24T15:24:17.286Z,21.76
2023-04-24T15:26:45.146Z,21.73
2023-04-24T15:29:12.892Z,21.72
2023-04-24T15:31:41.319Z,21.70
2023-04-24T15:34:09.785Z,21.73
2023-04-24T15:36:37.545Z,21.75
2023-04-24T15:39:06.635Z,21.76
2023-04-24T15:41:36.157Z,21.72
2023-04-24T15:44:04.010Z,21.71
2023-04-24T15:46:31.854Z,21.70
2023-04-24T15:48:59.659Z,21.70
2023-04-24T15:51:27.719Z,21.72
2023-04-24T15:53:55.464Z,21.72
2023-04-24T15:56:24.091Z,21.70
2023-04-24T15:58:51.885Z,21.65
2023-04-24T16:01:19.664Z,21.74
2023-04-24T16:03:47.660Z,21.88
2023-04-24T16:06:15.620Z,21.97
2023-04-24T16:08:43.466Z,21.98
2023-04-24T16:11:11.241Z,21.92
2023-04-24T16:13:39.019Z,21.91
2023-04-24T16:16:06.836Z,21.93
2023-04-24T16:18:34.623Z,21.90
2023-04-24T16:21:02.374Z,21.87
2023-04-24T16:23:30.143Z,21.85
2023-04-24T16:25:58.014Z,21.83
2023-04-24T16:28:27.311Z,21.82
2023-04-24T16:30:55.157Z,21.82
2023-04-24T16:33:23.042Z,21.78
2023-04-24T16:35:51.126Z,21.76
2023-04-24T16:38:18.923Z,21.78
2023-04-24T16:40:46.815Z,21.76
2023-04-24T16:43:14.569Z,21.72
2023-04-24T16:45:42.310Z,21.70
2023-04-24T16:48:11.293Z,21.68
2023-04-24T16:50:39.259Z,21.65
2023-04-24T16:53:07.098Z,21.61
2023-04-24T16:55:34.913Z,21.57
2023-04-24T16:58:02.673Z,21.54
2023-04-24T17:00:30.856Z,21.53
2023-04-24T17:02:58.916Z,21.53
2023-04-24T17:05:26.864Z,21.48
2023-04-24T17:07:54.821Z,21.47
2023-04-24T17:10:22.614Z,21.44
2023-04-24T17:12:51.432Z,21.42
2023-04-24T17:15:19.360Z,21.41
2023-04-24T17:17:47.258Z,21.42
2023-04-24T17:20:22.158Z,21.39
2023-04-24T17:22:52.665Z,21.36
2023-04-24T17:25:21.230Z,21.37
2023-04-24T17:27:49.483Z,21.34
2023-04-24T17:30:18.039Z,21.32
2023-04-24T17:35:14.009Z,21.34
2023-04-24T17:37:44.004Z,21.10
2023-04-24T17:40:11.820Z,21.11
2023-04-24T17:42:45.523Z,21.19
2023-04-24T17:45:13.300Z,21.30
2023-04-24T17:47:41.302Z,21.35
2023-04-24T17:50:09.372Z,21.40
2023-04-24T17:52:39.498Z,21.47
2023-04-24T17:55:07.311Z,21.49
2023-04-24T17:57:35.092Z,21.50
2023-04-24T18:00:05.346Z,21.51
2023-04-24T18:02:36.651Z,21.49
2023-04-24T18:05:04.835Z,21.47
2023-04-24T18:07:34.216Z,21.48
2023-04-24T18:10:05.162Z,21.49
2023-04-24T18:12:32.983Z,21.46
2023-04-24T18:15:12.977Z,21.41
2023-04-24T18:17:41.326Z,21.40
2023-04-24T18:20:11.413Z,21.39
2023-04-24T18:22:39.219Z,21.34
2023-04-24T18:25:10.052Z,21.30
2023-04-24T18:27:37.845Z,21.27
2023-04-24T18:30:05.969Z,21.25
2023-04-24T18:32:33.925Z,21.23
2023-04-24T18:35:01.679Z,21.20
2023-04-24T18:37:29.483Z,21.21
2023-04-24T18:39:57.388Z,21.22
2023-04-24T18:42:25.246Z,21.19
2023-04-24T18:44:53.084Z,21.26
2023-04-24T18:47:21.034Z,21.40
2023-04-24T18:49:48.804Z,21.43
2023-04-24T18:52:16.558Z,21.41
2023-04-24T18:54:44.321Z,21.33
2023-04-24T18:57:14.007Z,21.28
2023-04-24T18:59:41.853Z,21.20
2023-04-24T19:02:09.694Z,21.13
2023-04-24T19:04:39.851Z,21.07
2023-04-24T19:07:08.313Z,21.05
2023-04-24T19:09:36.201Z,21.05
2023-04-24T19:12:03.952Z,21.04
2023-04-24T19:14:31.716Z,21.03
2023-04-24T19:17:00.809Z,21.02
2023-04-24T19:19:28.968Z,21.01
2023-04-24T19:21:56.879Z,21.01
2023-04-24T19:24:25.478Z,21.04
2023-04-24T19:26:53.300Z,20.99
2023-04-24T19:29:21.053Z,20.98
2023-04-24T19:31:48.904Z,20.99
2023-04-24T19:34:16.708Z,20.98
2023-04-24T19:36:44.480Z,20.97
2023-04-24T19:39:12.377Z,20.96
2023-04-24T19:41:40.150Z,20.94
2023-04-24T19:44:07.931Z,20.94
2023-04-24T19:46:35.803Z,20.91
2023-04-24T19:49:03.606Z,20.91
2023-04-24T19:51:32.580Z,20.89
2023-04-24T19:54:00.991Z,20.88
2023-04-24T19:56:28.740Z,20.87
2023-04-24T19:58:56.505Z,20.84
2023-04-24T20:01:24.336Z,20.81
2023-04-24T20:03:52.236Z,20.83
2023-04-24T20:06:20.172Z,20.85
2023-04-24T20:08:48.125Z,20.83
2023-04-24T20:11:16.699Z,20.82
2023-04-24T20:13:44.473Z,20.80
2023-04-24T20:16:12.602Z,20.77
2023-04-24T20:18:40.442Z,20.72
2023-04-24T20:21:10.249Z,20.76
2023-04-24T20:23:38.014Z,20.78
2023-04-24T20:26:08.386Z,20.79
2023-04-24T20:28:36.170Z,20.75
2023-04-24T20:31:04.041Z,20.70
2023-04-24T20:33:32.378Z,20.71
2023-04-24T20:36:02.249Z,20.71
2023-04-24T20:38:31.197Z,20.69
2023-04-24T20:41:00.224Z,20.68
2023-04-24T20:43:29.151Z,20.72
2023-04-24T20:46:03.542Z,20.66
2023-04-24T20:48:33.745Z,20.65
2023-04-24T20:51:02.051Z,20.64
2023-04-24T20:53:29.836Z,20.61
2023-04-24T20:55:59.838Z,20.60
2023-04-24T20:58:27.598Z,20.59
2023-04-24T21:00:55.368Z,20.60
2023-04-24T21:03:23.626Z,20.58
2023-04-24T21:05:51.827Z,20.57
2023-04-24T21:08:19.720Z,20.58
2023-04-24T21:10:47.573Z,20.57
2023-04-24T21:15:43.341Z,20.52
2023-04-24T21:18:11.176Z,20.50
2023-04-24T21:20:38.979Z,20.45
2023-04-24T21:23:06.733Z,20.45
2023-04-24T21:25:34.524Z,20.44
2023-04-24T21:28:02.331Z,20.45
2023-04-24T21:30:30.587Z,20.43
2023-04-24T21:32:58.960Z,20.39
2023-04-24T21:35:26.813Z,20.40
2023-04-24T21:37:54.613Z,20.40
2023-04-24T21:40:22.355Z,20.42
2023-04-24T21:42:51.896Z,20.40
2023-04-24T21:45:21.848Z,20.39
2023-04-24T21:47:49.670Z,20.42
2023-04-24T21:50:17.686Z,20.40
2023-04-24T21:52:45.448Z,20.38
2023-04-24T21:55:13.285Z,20.37
2023-04-24T21:57:41.212Z,20.40
2023-04-24T22:00:11.396Z,20.40
2023-04-24T22:02:39.708Z,20.40
2023-04-24T22:05:08.632Z,20.42
2023-04-24T22:07:36.621Z,20.38
2023-04-24T22:10:05.707Z,20.38
2023-04-24T22:12:35.389Z,20.40
2023-04-24T22:15:04.093Z,20.40
2023-04-24T22:17:31.880Z,20.35
2023-04-24T22:19:59.672Z,20.35
2023-04-24T22:22:27.752Z,20.37
2023-04-24T22:24:56.193Z,20.37
2023-04-24T22:27:24.087Z,20.39
2023-04-24T22:29:52.257Z,20.40
2023-04-24T22:32:20.056Z,20.38
2023-04-24T22:34:47.896Z,20.41
2023-04-24T22:37:15.845Z,20.38
2023-04-24T22:39:43.621Z,20.35
2023-04-24T22:42:11.609Z,20.36
2023-04-24T22:44:39.360Z,20.33
2023-04-24T22:47:08.503Z,20.33
2023-04-24T22:49:36.318Z,20.35
2023-04-24T22:52:05.263Z,20.30
2023-04-24T22:54:33.241Z,20.29
2023-04-24T22:57:01.093Z,20.30
2023-04-24T22:59:28.869Z,20.30
2023-04-24T23:01:56.687Z,20.30
2023-04-24T23:04:24.642Z,20.27
2023-04-24T23:06:52.626Z,20.26
2023-04-24T23:09:20.458Z,20.23
2023-04-24T23:11:48.591Z,20.18
2023-04-24T23:14:16.898Z,20.19
2023-04-24T23:16:46.246Z,20.19
2023-04-24T23:19:14.266Z,20.15
2023-04-24T23:21:42.029Z,20.13
2023-04-24T23:24:09.810Z,20.14
2023-04-24T23:26:38.287Z,20.13
2023-04-24T23:29:06.261Z,20.12
2023-04-24T23:31:34.116Z,20.09
2023-04-24T23:34:02.708Z,20.06
2023-04-24T23:36:30.526Z,20.04
2023-04-24T23:38:58.314Z,20.06
2023-04-24T23:41:26.226Z,20.07
2023-04-24T23:43:54.169Z,20.03
2023-04-24T23:46:22.909Z,20.02
2023-04-24T23:48:50.964Z,20.03
2023-04-24T23:51:19.116Z,20.02
2023-04-24T23:53:47.213Z,19.96
2023-04-24T23:56:15.177Z,19.97
2023-04-24T23:58:43.004Z,19.96
